createdAt,value
2023-04-11T00:01:05.527Z,23.10
2023-04-11T00:03:34.729Z,23.23
2023-04-11T00:06:05.131Z,22.48
2023-04-11T00:11:04.381Z,23.52
2023-04-11T00:13:33.014Z,23.98
2023-04-11T00:16:03.512Z,24.00
2023-04-11T00:18:36.118Z,23.17
2023-04-11T00:21:05.669Z,22.15
2023-04-11T00:23:34.547Z,23.25
2023-04-11T00:26:04.978Z,23.20
2023-04-11T00:28:33.460Z,20.45
2023-04-11T00:31:03.525Z,20.40
2023-04-11T00:33:32.546Z,19.80
2023-04-11T00:36:01.401Z,20.05
2023-04-11T00:38:30.487Z,21.17
2023-04-11T00:40:59.432Z,20.52
2023-04-11T00:43:29.330Z,19.35
2023-04-11T00:45:58.404Z,21.55
2023-04-11T00:48:28.681Z,21.17
2023-04-11T00:53:26.369Z,22.77
2023-04-11T00:55:55.400Z,21.50
2023-04-11T00:58:24.506Z,21.80
2023-04-11T01:00:54.922Z,23.25
2023-04-11T01:03:24.285Z,22.55
2023-04-11T01:05:53.966Z,20.52
2023-04-11T01:08:23.707Z,21.20
2023-04-11T01:10:52.214Z,20.80
2023-04-11T01:13:21.923Z,21.25
2023-04-11T01:15:50.857Z,20.75
2023-04-11T01:18:21.215Z,20.83
2023-04-11T01:23:22.648Z,21.00
2023-04-11T01:25:51.402Z,20.00
2023-04-11T01:28:20.778Z,21.40
2023-04-11T01:30:50.647Z,19.58
2023-04-11T01:33:19.721Z,19.88
2023-04-11T01:35:50.055Z,20.67
2023-04-11T01:38:19.044Z,20.13
2023-04-11T01:40:49.336Z,19.70
2023-04-11T01:45:46.994Z,18.88
2023-04-11T01:48:17.120Z,18.95
2023-04-11T01:50:47.207Z,19.60
2023-04-11T01:53:16.140Z,19.58
2023-04-11T01:55:44.634Z,18.40
2023-04-11T01:58:14.864Z,19.33
2023-04-11T02:00:43.780Z,18.25
2023-04-11T02:03:13.842Z,17.80
2023-04-11T02:05:44.128Z,17.70
2023-04-11T02:08:12.988Z,19.05
2023-04-11T02:10:41.517Z,17.52
2023-04-11T02:13:10.938Z,17.45
2023-04-11T02:15:41.844Z,19.27
2023-04-11T02:18:11.422Z,17.33
2023-04-11T02:20:40.959Z,18.42
2023-04-11T02:23:09.890Z,16.97
2023-04-11T02:25:39.076Z,18.27
2023-04-11T02:28:08.350Z,19.58
2023-04-11T02:30:37.431Z,18.25
2023-04-11T02:33:07.799Z,19.52
2023-04-11T02:35:36.964Z,19.30
2023-04-11T02:38:05.822Z,18.80
2023-04-11T02:40:34.402Z,18.67
2023-04-11T02:43:03.346Z,19.48
2023-04-11T02:45:32.902Z,22.37
2023-04-11T02:50:36.472Z,20.38
2023-04-11T02:55:35.117Z,20.27
2023-04-11T02:58:04.235Z,23.15
2023-04-11T03:00:33.129Z,23.30
2023-04-11T03:03:07.638Z,23.20
2023-04-11T03:05:43.559Z,24.52
2023-04-11T03:08:14.054Z,22.05
2023-04-11T03:10:49.518Z,24.33
2023-04-11T03:13:18.488Z,22.77
2023-04-11T03:15:47.387Z,23.48
2023-04-11T03:18:17.184Z,22.67
2023-04-11T03:20:50.573Z,22.52
2023-04-11T03:23:19.799Z,22.27
2023-04-11T03:25:51.067Z,22.65
2023-04-11T03:28:21.255Z,24.33
2023-04-11T03:30:50.695Z,24.55
2023-04-11T03:33:24.176Z,23.92
2023-04-11T03:35:54.542Z,24.60
2023-04-11T03:40:51.620Z,24.80
2023-04-11T03:43:23.249Z,24.20
2023-04-11T03:45:53.766Z,24.15
2023-04-11T03:48:35.248Z,24.23
2023-04-11T03:51:09.678Z,24.20
2023-04-11T03:53:48.360Z,27.27
2023-04-11T03:56:43.338Z,26.95
2023-04-11T03:59:19.730Z,26.58
2023-04-11T04:02:14.980Z,27.23
2023-04-11T04:04:55.001Z,25.35
2023-04-11T04:07:29.444Z,26.42
2023-04-11T04:10:09.457Z,26.02
2023-04-11T04:12:38.366Z,29.02
2023-04-11T04:15:15.076Z,26.50
2023-04-11T04:17:47.734Z,28.50
2023-04-11T04:20:23.369Z,27.27
2023-04-11T04:23:00.323Z,27.52
2023-04-11T04:25:42.314Z,26.70
2023-04-11T04:28:13.000Z,27.23
2023-04-11T04:30:42.679Z,27.20
2023-04-11T04:33:14.826Z,26.92
2023-04-11T04:35:48.552Z,27.48
2023-04-11T04:38:19.579Z,28.20
2023-04-11T04:40:55.173Z,25.33
2023-04-11T04:43:27.402Z,25.25
2023-04-11T04:46:16.908Z,26.75
2023-04-11T04:48:50.905Z,26.75
2023-04-11T04:51:20.096Z,26.10
2023-04-11T04:53:50.918Z,26.92
2023-04-11T04:56:19.888Z,24.73
2023-04-11T04:58:50.434Z,26.70
2023-04-11T05:01:21.623Z,25.80
2023-04-11T05:03:59.605Z,27.67
2023-04-11T05:06:52.057Z,26.33
2023-04-11T05:09:22.932Z,26.63
2023-04-11T05:11:54.308Z,27.15
2023-04-11T05:14:25.314Z,25.67
2023-04-11T05:16:53.876Z,25.50
2023-04-11T05:19:22.985Z,24.73
2023-04-11T05:21:53.694Z,25.92
2023-04-11T05:24:24.074Z,24.60
2023-04-11T05:26:53.334Z,27.40
2023-04-11T05:29:23.302Z,24.15
2023-04-11T05:31:52.197Z,25.80
2023-04-11T05:34:21.680Z,25.37
2023-04-11T05:36:52.063Z,24.95
2023-04-11T05:39:23.953Z,23.00
2023-04-11T05:41:52.975Z,25.25
2023-04-11T05:44:21.873Z,23.02
2023-04-11T05:46:50.393Z,23.77
2023-04-11T05:49:20.290Z,26.27
2023-04-11T05:51:49.274Z,23.67
2023-04-11T05:54:33.935Z,23.58
2023-04-11T05:57:03.401Z,24.58
2023-04-11T05:59:33.049Z,25.50
2023-04-11T06:02:02.191Z,26.13
2023-04-11T06:04:30.981Z,23.10
2023-04-11T06:07:00.125Z,24.25
2023-04-11T06:09:28.990Z,24.33
2023-04-11T06:11:59.348Z,24.25
2023-04-11T06:16:56.594Z,23.20
2023-04-11T06:19:25.554Z,22.60
2023-04-11T06:21:54.482Z,23.08
2023-04-11T06:24:37.030Z,23.60
2023-04-11T06:27:10.151Z,20.20
2023-04-11T06:29:39.414Z,22.10
2023-04-11T06:32:08.747Z,17.17
2023-04-11T06:34:37.364Z,17.25
2023-04-11T06:37:07.267Z,18.77
2023-04-11T06:39:37.180Z,18.08
2023-04-11T06:42:07.671Z,17.27
2023-04-11T06:44:36.694Z,14.98
2023-04-11T06:47:05.782Z,15.60
2023-04-11T06:49:34.460Z,16.83
2023-04-11T06:52:03.661Z,13.10
2023-04-11T06:54:32.685Z,13.00
2023-04-11T06:57:02.333Z,13.65
2023-04-11T06:59:33.092Z,13.57
2023-04-11T07:02:02.196Z,10.77
2023-04-11T07:04:31.053Z,9.48
2023-04-11T07:07:00.227Z,13.27
2023-04-11T07:09:29.072Z,8.20
2023-04-11T07:11:58.074Z,10.70
2023-04-11T07:14:27.378Z,8.27
2023-04-11T07:16:57.235Z,10.98
2023-04-11T07:19:26.236Z,9.88
2023-04-11T07:21:55.198Z,10.55
2023-04-11T07:24:24.163Z,8.07
2023-04-11T07:26:53.931Z,9.48
2023-04-11T07:29:22.798Z,10.80
2023-04-11T07:31:51.629Z,7.78
2023-04-11T07:34:22.049Z,6.20
2023-04-11T07:36:51.355Z,9.35
2023-04-11T07:39:20.275Z,7.90
2023-04-11T07:41:49.187Z,6.07
2023-04-11T07:44:18.101Z,9.63
2023-04-11T07:46:46.632Z,9.82
2023-04-11T07:49:15.701Z,9.23
2023-04-11T07:51:45.966Z,8.30
2023-04-11T07:54:15.008Z,7.38
2023-04-11T07:56:43.926Z,6.38
2023-04-11T07:59:14.182Z,6.07
2023-04-11T08:01:42.906Z,7.30
2023-04-11T08:04:12.603Z,8.75
2023-04-11T08:06:41.661Z,7.55
2023-04-11T08:09:11.937Z,7.75
2023-04-11T08:14:09.846Z,7.03
2023-04-11T08:16:38.495Z,6.50
2023-04-11T08:19:07.409Z,13.23
2023-04-11T08:21:36.428Z,8.68
2023-04-11T08:24:05.503Z,11.15
2023-04-11T08:26:35.999Z,5.45
2023-04-11T08:29:05.114Z,4.97
2023-04-11T08:31:33.599Z,5.03
2023-04-11T08:34:04.428Z,4.72
2023-04-11T08:36:35.139Z,5.30
2023-04-11T08:39:04.296Z,3.85
2023-04-11T08:41:35.213Z,4.40
2023-04-11T08:44:04.193Z,5.25
2023-04-11T08:46:34.285Z,3.78
2023-04-11T08:49:03.273Z,3.95
2023-04-11T08:51:32.122Z,4.93
2023-04-11T08:54:03.615Z,5.15
2023-04-11T08:56:32.596Z,4.55
2023-04-11T08:59:02.814Z,3.90
2023-04-11T09:01:33.268Z,3.90
2023-04-11T09:04:05.326Z,3.90
2023-04-11T09:06:35.036Z,3.60
2023-04-11T09:09:06.554Z,3.57
2023-04-11T09:11:53.286Z,3.53
2023-04-11T09:14:26.921Z,3.88
2023-04-11T09:16:56.855Z,3.63
2023-04-11T09:19:26.193Z,3.05
2023-04-11T09:21:56.803Z,2.65
2023-04-11T09:24:26.475Z,4.10
2023-04-11T09:27:08.911Z,3.30
2023-04-11T09:29:40.908Z,2.60
2023-04-11T09:32:11.785Z,4.28
2023-04-11T09:34:42.606Z,3.10
2023-04-11T09:37:11.673Z,4.00
2023-04-11T09:39:40.666Z,2.40
2023-04-11T09:42:24.684Z,4.57
2023-04-11T09:44:55.112Z,4.03
2023-04-11T09:47:24.027Z,3.30
2023-04-11T09:49:52.984Z,3.88
2023-04-11T09:52:21.995Z,3.80
2023-04-11T09:54:52.492Z,4.30
2023-04-11T09:57:23.839Z,4.15
2023-04-11T09:59:55.569Z,3.85
2023-04-11T10:02:24.602Z,3.67
2023-04-11T10:04:54.787Z,3.17
2023-04-11T10:07:24.288Z,2.78
2023-04-11T10:09:53.440Z,4.53
2023-04-11T10:12:35.315Z,4.13
2023-04-11T10:15:09.605Z,4.00
2023-04-11T10:17:40.009Z,3.03
2023-04-11T10:20:46.620Z,3.75
2023-04-11T10:23:16.642Z,3.47
2023-04-11T10:25:53.412Z,3.50
2023-04-11T10:28:35.626Z,3.00
2023-04-11T10:31:07.531Z,3.47
2023-04-11T10:33:37.452Z,4.15
2023-04-11T10:36:10.499Z,3.40
2023-04-11T10:38:49.960Z,3.40
2023-04-11T10:41:31.513Z,3.95
2023-04-11T10:44:18.429Z,3.97
2023-04-11T10:46:50.593Z,3.95
2023-04-11T10:49:37.082Z,4.13
2023-04-11T10:52:20.633Z,2.60
2023-04-11T10:54:50.384Z,3.45
2023-04-11T10:57:19.694Z,2.33
2023-04-11T10:59:58.885Z,3.78
2023-04-11T11:02:39.491Z,3.70
2023-04-11T11:07:54.020Z,3.33
2023-04-11T11:10:46.351Z,2.20
2023-04-11T11:13:16.364Z,2.92
2023-04-11T11:15:49.620Z,2.80
2023-04-11T11:18:20.085Z,2.63
2023-04-11T11:20:50.212Z,3.20
2023-04-11T11:23:19.149Z,3.63
2023-04-11T11:25:54.838Z,3.50
2023-04-11T11:28:24.154Z,3.92
2023-04-11T11:30:55.575Z,2.90
2023-04-11T11:33:28.486Z,4.20
2023-04-11T11:36:00.164Z,3.45
2023-04-11T11:38:30.427Z,4.55
2023-04-11T11:43:28.620Z,3.88
2023-04-11T11:46:12.144Z,4.13
2023-04-11T11:48:43.525Z,4.53
2023-04-11T11:51:12.525Z,3.80
2023-04-11T11:53:41.744Z,3.88
2023-04-11T11:56:15.130Z,4.32
2023-04-11T11:58:45.402Z,3.92
2023-04-11T12:01:17.180Z,4.30
2023-04-11T12:03:51.647Z,4.25
2023-04-11T12:06:21.210Z,4.47
2023-04-11T12:08:54.037Z,4.25
2023-04-11T12:11:25.318Z,3.55
2023-04-11T12:13:54.915Z,4.07
2023-04-11T12:16:24.716Z,4.22
2023-04-11T12:18:55.208Z,4.30
2023-04-11T12:23:52.564Z,4.15
2023-04-11T12:26:21.886Z,5.40
2023-04-11T12:28:51.201Z,4.60
2023-04-11T12:31:20.732Z,4.05
2023-04-11T12:33:49.679Z,4.93
2023-04-11T12:36:20.084Z,4.50
2023-04-11T12:38:49.103Z,4.70
2023-04-11T12:43:49.344Z,4.82
2023-04-11T12:46:18.903Z,5.47
2023-04-11T12:48:47.806Z,5.43
2023-04-11T12:51:16.704Z,5.88
2023-04-11T12:53:47.111Z,5.70
2023-04-11T12:58:45.066Z,5.80
2023-04-11T13:01:13.917Z,6.35
2023-04-11T13:03:42.927Z,6.28
2023-04-11T13:06:11.870Z,5.75
2023-04-11T13:08:40.431Z,6.50
2023-04-11T13:11:10.299Z,6.53
2023-04-11T13:13:38.390Z,5.20
2023-04-11T13:16:08.568Z,6.15
2023-04-11T13:18:37.176Z,6.47
2023-04-11T13:21:06.292Z,5.68
2023-04-11T13:23:34.983Z,7.03
2023-04-11T13:26:03.695Z,7.65
2023-04-11T13:28:34.824Z,7.47
2023-04-11T13:31:03.473Z,5.45
2023-04-11T13:33:32.098Z,6.15
2023-04-11T13:36:00.784Z,7.80
2023-04-11T13:38:29.325Z,6.80
2023-04-11T13:40:57.845Z,5.63
2023-04-11T13:43:25.998Z,6.47
2023-04-11T13:45:56.147Z,7.70
2023-04-11T13:48:24.710Z,8.07
2023-04-11T13:50:53.129Z,4.50
2023-04-11T13:53:21.652Z,6.50
2023-04-11T13:55:49.785Z,4.05
2023-04-11T13:58:18.405Z,5.70
2023-04-11T14:00:47.325Z,7.07
2023-04-11T14:03:17.956Z,6.82
2023-04-11T14:05:46.631Z,5.75
2023-04-11T14:08:15.304Z,5.63
2023-04-11T14:10:44.530Z,6.05
2023-04-11T14:13:13.094Z,6.60
2023-04-11T14:15:41.634Z,6.47
2023-04-11T14:18:10.234Z,6.60
2023-04-11T14:20:40.497Z,6.38
2023-04-11T14:23:10.449Z,4.38
2023-04-11T14:25:38.619Z,5.57
2023-04-11T14:28:07.319Z,6.38
2023-04-11T14:30:36.322Z,6.13
2023-04-11T14:33:05.139Z,5.45
2023-04-11T14:35:33.760Z,4.75
2023-04-11T14:38:04.442Z,6.20
2023-04-11T14:40:32.851Z,5.53
2023-04-11T14:43:01.486Z,4.03
2023-04-11T14:45:30.084Z,5.80
2023-04-11T14:47:58.697Z,3.85
2023-04-11T14:50:28.547Z,3.78
2023-04-11T14:52:57.239Z,6.00
2023-04-11T14:55:27.100Z,5.65
2023-04-11T14:57:56.847Z,5.32
2023-04-11T15:00:25.532Z,5.88
2023-04-11T15:02:55.112Z,5.72
2023-04-11T15:05:24.642Z,4.90
2023-04-11T15:07:53.968Z,5.47
2023-04-11T15:10:24.328Z,4.90
2023-04-11T15:15:23.337Z,5.50
2023-04-11T15:18:24.596Z,4.70
2023-04-11T15:20:53.714Z,5.50
2023-04-11T15:23:22.565Z,3.72
2023-04-11T15:25:54.539Z,4.60
2023-04-11T15:28:25.197Z,4.70
2023-04-11T15:30:55.570Z,4.40
2023-04-11T15:33:24.764Z,5.03
2023-04-11T15:35:54.398Z,5.20
2023-04-11T15:38:23.439Z,4.32
2023-04-11T15:40:51.932Z,4.35
2023-04-11T15:43:20.719Z,3.53
2023-04-11T15:45:52.609Z,4.47
2023-04-11T15:48:21.464Z,5.15
2023-04-11T15:50:50.879Z,4.68
2023-04-11T15:53:19.588Z,5.50
2023-04-11T15:55:49.082Z,5.57
2023-04-11T15:58:17.905Z,5.38
2023-04-11T16:00:47.178Z,5.80
2023-04-11T16:03:18.032Z,5.70
2023-04-11T16:05:51.052Z,5.97
2023-04-11T16:08:20.261Z,5.47
2023-04-11T16:10:49.021Z,5.47
2023-04-11T16:13:19.007Z,5.40
2023-04-11T16:15:47.904Z,5.60
2023-04-11T16:18:18.651Z,5.88
2023-04-11T16:20:47.634Z,7.05
2023-04-11T16:23:16.463Z,6.90
2023-04-11T16:25:45.548Z,7.05
2023-04-11T16:28:15.433Z,7.00
2023-04-11T16:30:44.185Z,6.50
2023-04-11T16:33:12.839Z,7.25
2023-04-11T16:35:43.033Z,7.22
2023-04-11T16:38:11.656Z,6.38
2023-04-11T16:40:39.867Z,5.80
2023-04-11T16:43:08.717Z,6.07
2023-04-11T16:45:37.471Z,6.85
2023-04-11T16:48:07.298Z,6.30
2023-04-11T16:50:36.220Z,7.15
2023-04-11T16:53:06.645Z,7.25
2023-04-11T16:55:35.056Z,6.72
2023-04-11T16:58:03.740Z,6.82
2023-04-11T17:00:33.597Z,7.00
2023-04-11T17:03:03.058Z,7.40
2023-04-11T17:05:34.266Z,6.90
2023-04-11T17:08:02.919Z,6.90
2023-04-11T17:10:34.232Z,7.25
2023-04-11T17:13:03.881Z,6.93
2023-04-11T17:15:32.744Z,6.37
2023-04-11T17:18:01.463Z,7.15
2023-04-11T17:20:30.848Z,7.50
2023-04-11T17:22:59.964Z,7.10
2023-04-11T17:25:30.194Z,7.85
2023-04-11T17:28:01.794Z,6.93
2023-04-11T17:30:32.562Z,7.80
2023-04-11T17:33:01.799Z,8.18
2023-04-11T17:35:30.895Z,7.90
2023-04-11T17:38:00.750Z,7.78
2023-04-11T17:40:29.317Z,7.70
2023-04-11T17:42:58.416Z,7.30
2023-04-11T17:45:28.836Z,7.25
2023-04-11T17:47:58.028Z,7.95
2023-04-11T17:50:27.129Z,8.57
2023-04-11T17:52:56.481Z,8.57
2023-04-11T17:55:25.429Z,8.77
2023-04-11T17:57:54.420Z,7.35
2023-04-11T18:00:23.524Z,8.07
2023-04-11T18:02:57.739Z,7.85
2023-04-11T18:05:29.400Z,7.47
2023-04-11T18:07:59.614Z,7.63
2023-04-11T18:10:30.411Z,7.25
2023-04-11T18:13:00.116Z,8.15
2023-04-11T18:15:29.082Z,8.30
2023-04-11T18:17:59.441Z,9.25
2023-04-11T18:22:57.582Z,8.57
2023-04-11T18:25:26.566Z,9.00
2023-04-11T18:27:55.379Z,9.32
2023-04-11T18:30:24.446Z,8.20
2023-04-11T18:32:56.062Z,8.15
2023-04-11T18:35:28.032Z,9.38
2023-04-11T18:37:56.841Z,10.00
2023-04-11T18:40:26.519Z,8.13
2023-04-11T18:42:56.427Z,9.75
2023-04-11T18:45:25.954Z,9.68
2023-04-11T18:47:54.953Z,9.27
2023-04-11T18:50:24.164Z,9.95
2023-04-11T18:52:56.554Z,9.13
2023-04-11T18:55:27.654Z,9.95
2023-04-11T18:57:59.505Z,11.23
2023-04-11T19:00:31.402Z,10.70
2023-04-11T19:03:01.012Z,10.48
2023-04-11T19:05:30.863Z,11.52
2023-04-11T19:08:01.838Z,11.57
2023-04-11T19:10:30.513Z,11.48
2023-04-11T19:12:59.350Z,10.77
2023-04-11T19:15:29.069Z,10.38
2023-04-11T19:17:58.467Z,13.80
2023-04-11T19:20:27.953Z,12.97
2023-04-11T19:22:56.509Z,13.35
2023-04-11T19:25:27.518Z,11.95
2023-04-11T19:27:56.440Z,12.38
2023-04-11T19:30:25.430Z,11.88
2023-04-11T19:32:54.406Z,43.67
2023-04-11T19:35:24.505Z,26.10
2023-04-11T19:37:53.311Z,17.80
2023-04-11T19:40:23.653Z,15.27
2023-04-11T19:45:23.115Z,14.52
2023-04-11T19:47:52.039Z,12.20
2023-04-11T19:50:23.003Z,13.85
2023-04-11T19:52:51.925Z,15.32
2023-04-11T19:55:21.159Z,17.05
2023-04-11T19:57:50.005Z,18.35
2023-04-11T20:00:20.698Z,19.20
2023-04-11T20:02:50.026Z,16.75
2023-04-11T20:05:21.808Z,18.58
2023-04-11T20:07:50.467Z,18.25
2023-04-11T20:10:19.529Z,16.75
2023-04-11T20:12:48.732Z,19.25
2023-04-11T20:15:20.401Z,18.88
2023-04-11T20:20:19.659Z,18.63
2023-04-11T20:22:48.290Z,20.52
2023-04-11T20:25:17.156Z,19.90
2023-04-11T20:27:46.043Z,24.10
2023-04-11T20:30:17.325Z,47.55
2023-04-11T20:32:47.840Z,61.53
2023-04-11T20:35:16.789Z,48.85
2023-04-11T20:37:45.416Z,49.03
2023-04-11T20:40:14.805Z,49.90
2023-04-11T20:42:45.961Z,36.05
2023-04-11T20:45:17.217Z,20.23
2023-04-11T20:47:49.963Z,19.13
2023-04-11T20:50:20.000Z,24.48
2023-04-11T20:52:54.399Z,20.80
2023-04-11T20:55:25.264Z,22.67
2023-04-11T20:57:54.400Z,22.33
2023-04-11T21:00:23.549Z,22.25
2023-04-11T21:02:54.344Z,20.60
2023-04-11T21:05:25.084Z,21.67
2023-04-11T21:10:23.766Z,21.90
2023-04-11T21:12:54.111Z,23.48
2023-04-11T21:15:24.473Z,25.38
2023-04-11T21:17:55.015Z,26.73
2023-04-11T21:20:24.384Z,25.35
2023-04-11T21:22:54.221Z,24.48
2023-04-11T21:25:24.530Z,24.63
2023-04-11T21:27:53.398Z,22.98
2023-04-11T21:30:22.335Z,23.30
2023-04-11T21:32:52.094Z,22.63
2023-04-11T21:35:23.480Z,24.15
2023-04-11T21:37:51.996Z,22.90
2023-04-11T21:40:20.904Z,23.10
2023-04-11T21:42:49.849Z,23.23
2023-04-11T21:45:18.864Z,23.67
2023-04-11T21:47:47.887Z,23.88
2023-04-11T21:50:16.960Z,25.00
2023-04-11T21:52:47.405Z,23.40
2023-04-11T21:55:16.961Z,24.25
2023-04-11T21:57:45.858Z,23.83
2023-04-11T22:00:15.629Z,24.45
2023-04-11T22:02:44.827Z,24.65
2023-04-11T22:05:14.094Z,24.80
2023-04-11T22:07:51.391Z,25.33
2023-04-11T22:10:32.465Z,25.38
2023-04-11T22:13:07.020Z,25.95
2023-04-11T22:15:38.443Z,25.05
2023-04-11T22:18:09.574Z,26.05
2023-04-11T22:20:40.689Z,25.63
2023-04-11T22:23:10.367Z,27.98
2023-04-11T22:25:42.349Z,27.20
2023-04-11T22:28:15.674Z,26.15
2023-04-11T22:30:46.458Z,26.38
2023-04-11T22:33:15.527Z,27.13
2023-04-11T22:35:45.181Z,26.50
2023-04-11T22:38:14.214Z,27.38
2023-04-11T22:40:44.611Z,27.45
2023-04-11T22:43:13.485Z,29.63
2023-04-11T22:45:43.055Z,27.70
2023-04-11T22:48:13.959Z,28.75
2023-04-11T22:50:43.762Z,30.60
2023-04-11T22:53:14.151Z,28.33
2023-04-11T22:55:45.165Z,27.23
2023-04-11T22:58:14.075Z,29.50
2023-04-11T23:00:43.789Z,28.48
2023-04-11T23:03:14.155Z,27.83
2023-04-11T23:08:12.170Z,27.95
2023-04-11T23:10:40.668Z,26.58
2023-04-11T23:13:10.979Z,27.02
2023-04-11T23:18:08.862Z,26.20
2023-04-11T23:20:38.244Z,27.17
2023-04-11T23:23:07.220Z,26.48
2023-04-11T23:25:40.221Z,25.92
2023-04-11T23:28:10.772Z,24.33
2023-04-11T23:33:09.493Z,26.13
2023-04-11T23:35:38.505Z,27.17
2023-04-11T23:38:07.786Z,26.17
2023-04-11T23:40:36.308Z,27.42
2023-04-11T23:43:05.288Z,26.77
2023-04-11T23:45:35.988Z,26.17
2023-04-11T23:48:05.207Z,26.38
2023-04-11T23:50:34.128Z,27.02
2023-04-11T23:53:03.151Z,25.67
2023-04-11T23:55:32.340Z,25.98
2023-04-11T23:58:01.269Z,25.60
